sensor_id;sensor_type;location;lat;lon;timestamp;pressure;altitude;pressure_sealevel;temperature
22828;BMP180;11580;52.562;13.418;2023-11-21T00:00:15;99905.00;;;11.80
22828;BMP180;11580;52.562;13.418;2023-11-21T00:02:45;99914.00;;;11.70
22828;BMP180;11580;52.562;13.418;2023-11-21T00:05:13;99901.00;;;11.70
22828;BMP180;11580;52.562;13.418;2023-11-21T00:07:41;99905.00;;;11.60
22828;BMP180;11580;52.562;13.418;2023-11-21T00:10:10;99899.00;;;11.60
22828;BMP180;11580;52.562;13.418;2023-11-21T00:12:40;99911.00;;;11.50
22828;BMP180;11580;52.562;13.418;2023-11-21T00:15:09;99907.00;;;11.50
22828;BMP180;11580;52.562;13.418;2023-11-21T00:17:39;99908.00;;;11.50
22828;BMP180;11580;52.562;13.418;2023-11-21T00:20:07;99915.00;;;11.40
22828;BMP180;11580;52.562;13.418;2023-11-21T00:22:35;99921.00;;;11.40
22828;BMP180;11580;52.562;13.418;2023-11-21T00:25:03;99914.00;;;11.40
22828;BMP180;11580;52.562;13.418;2023-11-21T00:27:30;99925.00;;;11.30
22828;BMP180;11580;52.562;13.418;2023-11-21T00:29:58;99923.00;;;11.30
22828;BMP180;11580;52.562;13.418;2023-11-21T00:32:25;99935.00;;;11.30
22828;BMP180;11580;52.562;13.418;2023-11-21T00:34:53;99935.00;;;11.30
22828;BMP180;11580;52.562;13.418;2023-11-21T00:37:21;99925.00;;;11.20
22828;BMP180;11580;52.562;13.418;2023-11-21T00:39:49;99936.00;;;11.20
22828;BMP180;11580;52.562;13.418;2023-11-21T00:42:17;99933.00;;;11.20
22828;BMP180;11580;52.562;13.418;2023-11-21T00:44:44;99931.00;;;11.10
22828;BMP180;11580;52.562;13.418;2023-11-21T00:47:12;99945.00;;;11.10
22828;BMP180;11580;52.562;13.418;2023-11-21T00:49:40;99943.00;;;11.10
22828;BMP180;11580;52.562;13.418;2023-11-21T00:52:08;99934.00;;;11.00
22828;BMP180;11580;52.562;13.418;2023-11-21T00:54:35;99939.00;;;11.00
22828;BMP180;11580;52.562;13.418;2023-11-21T00:57:03;99953.00;;;11.00
22828;BMP180;11580;52.562;13.418;2023-11-21T00:59:30;99938.00;;;10.90
22828;BMP180;11580;52.562;13.418;2023-11-21T01:01:57;99947.00;;;10.90
22828;BMP180;11580;52.562;13.418;2023-11-21T01:04:26;99946.00;;;10.80
22828;BMP180;11580;52.562;13.418;2023-11-21T01:06:54;99946.00;;;10.80
22828;BMP180;11580;52.562;13.418;2023-11-21T01:09:22;99953.00;;;10.80
22828;BMP180;11580;52.562;13.418;2023-11-21T01:11:51;99957.00;;;10.90
22828;BMP180;11580;52.562;13.418;2023-11-21T01:14:19;99960.00;;;10.80
22828;BMP180;11580;52.562;13.418;2023-11-21T01:16:46;99938.00;;;10.80
22828;BMP180;11580;52.562;13.418;2023-11-21T01:19:14;99962.00;;;10.80
22828;BMP180;11580;52.562;13.418;2023-11-21T01:21:41;99967.00;;;10.80
22828;BMP180;11580;52.562;13.418;2023-11-21T01:24:09;99973.00;;;10.80
22828;BMP180;11580;52.562;13.418;2023-11-21T01:26:38;99972.00;;;10.80
22828;BMP180;11580;52.562;13.418;2023-11-21T01:29:05;99987.00;;;10.80
22828;BMP180;11580;52.562;13.418;2023-11-21T01:31:32;99982.00;;;10.80
22828;BMP180;11580;52.562;13.418;2023-11-21T01:33:59;99988.00;;;10.80
22828;BMP180;11580;52.562;13.418;2023-11-21T01:36:30;99992.00;;;10.80
22828;BMP180;11580;52.562;13.418;2023-11-21T01:38:59;99982.00;;;10.70
22828;BMP180;11580;52.562;13.418;2023-11-21T01:41:26;99989.00;;;10.70
22828;BMP180;11580;52.562;13.418;2023-11-21T01:43:56;99979.00;;;10.70
22828;BMP180;11580;52.562;13.418;2023-11-21T01:46:24;99982.00;;;10.60
22828;BMP180;11580;52.562;13.418;2023-11-21T01:48:52;99984.00;;;10.70
22828;BMP180;11580;52.562;13.418;2023-11-21T01:51:20;99990.00;;;10.70
22828;BMP180;11580;52.562;13.418;2023-11-21T01:53:47;99992.00;;;10.70
22828;BMP180;11580;52.562;13.418;2023-11-21T01:56:16;100000.00;;;10.70
22828;BMP180;11580;52.562;13.418;2023-11-21T01:58:44;99997.00;;;10.70
22828;BMP180;11580;52.562;13.418;2023-11-21T02:01:14;99998.00;;;10.70
22828;BMP180;11580;52.562;13.418;2023-11-21T02:03:41;100010.00;;;10.70
22828;BMP180;11580;52.562;13.418;2023-11-21T02:06:08;100002.00;;;10.60
22828;BMP180;11580;52.562;13.418;2023-11-21T02:08:36;100008.00;;;10.60
22828;BMP180;11580;52.562;13.418;2023-11-21T02:11:04;100003.00;;;10.70
22828;BMP180;11580;52.562;13.418;2023-11-21T02:13:32;100010.00;;;10.70
22828;BMP180;11580;52.562;13.418;2023-11-21T02:16:00;100012.00;;;10.70
22828;BMP180;11580;52.562;13.418;2023-11-21T02:18:28;100008.00;;;10.60
22828;BMP180;11580;52.562;13.418;2023-11-21T02:20:56;100017.00;;;10.60
22828;BMP180;11580;52.562;13.418;2023-11-21T02:23:25;100008.00;;;10.60
22828;BMP180;11580;52.562;13.418;2023-11-21T02:25:54;100005.00;;;10.60
22828;BMP180;11580;52.562;13.418;2023-11-21T02:28:21;100023.00;;;10.50
22828;BMP180;11580;52.562;13.418;2023-11-21T02:30:52;100016.00;;;10.50
22828;BMP180;11580;52.562;13.418;2023-11-21T02:33:21;100008.00;;;10.50
22828;BMP180;11580;52.562;13.418;2023-11-21T02:35:48;100020.00;;;10.50
22828;BMP180;11580;52.562;13.418;2023-11-21T02:38:17;100023.00;;;10.50
22828;BMP180;11580;52.562;13.418;2023-11-21T02:40:47;100026.00;;;10.50
22828;BMP180;11580;52.562;13.418;2023-11-21T02:43:14;100028.00;;;10.50
22828;BMP180;11580;52.562;13.418;2023-11-21T02:45:42;100035.00;;;10.50
22828;BMP180;11580;52.562;13.418;2023-11-21T02:48:12;100021.00;;;10.50
22828;BMP180;11580;52.562;13.418;2023-11-21T02:50:39;100031.00;;;10.50
22828;BMP180;11580;52.562;13.418;2023-11-21T02:53:07;100042.00;;;10.40
22828;BMP180;11580;52.562;13.418;2023-11-21T02:55:36;100032.00;;;10.40
22828;BMP180;11580;52.562;13.418;2023-11-21T02:58:05;100023.00;;;10.40
22828;BMP180;11580;52.562;13.418;2023-11-21T03:00:33;100028.00;;;10.40
22828;BMP180;11580;52.562;13.418;2023-11-21T03:03:00;100029.00;;;10.40
22828;BMP180;11580;52.562;13.418;2023-11-21T03:05:27;100035.00;;;10.40
22828;BMP180;11580;52.562;13.418;2023-11-21T03:07:54;100037.00;;;10.40
22828;BMP180;11580;52.562;13.418;2023-11-21T03:10:22;100029.00;;;10.40
22828;BMP180;11580;52.562;13.418;2023-11-21T03:12:49;100030.00;;;10.40
22828;BMP180;11580;52.562;13.418;2023-11-21T03:15:18;100042.00;;;10.40
22828;BMP180;11580;52.562;13.418;2023-11-21T03:17:45;100056.00;;;10.40
22828;BMP180;11580;52.562;13.418;2023-11-21T03:20:15;100043.00;;;10.40
22828;BMP180;11580;52.562;13.418;2023-11-21T03:22:42;100051.00;;;10.40
22828;BMP180;11580;52.562;13.418;2023-11-21T03:25:10;100049.00;;;10.40
22828;BMP180;11580;52.562;13.418;2023-11-21T03:27:37;100048.00;;;10.40
22828;BMP180;11580;52.562;13.418;2023-11-21T03:30:08;100058.00;;;10.40
22828;BMP180;11580;52.562;13.418;2023-11-21T03:32:38;100075.00;;;10.40
22828;BMP180;11580;52.562;13.418;2023-11-21T03:35:06;100079.00;;;10.30
22828;BMP180;11580;52.562;13.418;2023-11-21T03:37:33;100083.00;;;10.30
22828;BMP180;11580;52.562;13.418;2023-11-21T03:40:01;100084.00;;;10.20
22828;BMP180;11580;52.562;13.418;2023-11-21T03:42:29;100078.00;;;10.20
22828;BMP180;11580;52.562;13.418;2023-11-21T03:44:57;100083.00;;;10.20
22828;BMP180;11580;52.562;13.418;2023-11-21T03:47:24;100079.00;;;10.10
22828;BMP180;11580;52.562;13.418;2023-11-21T03:49:52;100081.00;;;10.10
22828;BMP180;11580;52.562;13.418;2023-11-21T03:52:19;100093.00;;;10.10
22828;BMP180;11580;52.562;13.418;2023-11-21T03:54:46;100088.00;;;10.10
22828;BMP180;11580;52.562;13.418;2023-11-21T03:57:14;100090.00;;;10.10
22828;BMP180;11580;52.562;13.418;2023-11-21T03:59:42;100088.00;;;10.10
22828;BMP180;11580;52.562;13.418;2023-11-21T04:02:10;100100.00;;;10.20
22828;BMP180;11580;52.562;13.418;2023-11-21T04:04:37;100101.00;;;10.20
22828;BMP180;11580;52.562;13.418;2023-11-21T04:07:06;100105.00;;;10.20
22828;BMP180;11580;52.562;13.418;2023-11-21T04:09:33;100098.00;;;10.20
22828;BMP180;11580;52.562;13.418;2023-11-21T04:12:03;100112.00;;;10.20
22828;BMP180;11580;52.562;13.418;2023-11-21T04:14:30;100115.00;;;10.20
22828;BMP180;11580;52.562;13.418;2023-11-21T04:16:58;100118.00;;;10.20
22828;BMP180;11580;52.562;13.418;2023-11-21T04:19:25;100114.00;;;10.20
22828;BMP180;11580;52.562;13.418;2023-11-21T04:21:52;100133.00;;;10.20
22828;BMP180;11580;52.562;13.418;2023-11-21T04:24:21;100120.00;;;10.20
22828;BMP180;11580;52.562;13.418;2023-11-21T04:26:48;100127.00;;;10.20
22828;BMP180;11580;52.562;13.418;2023-11-21T04:29:15;100133.00;;;10.20
22828;BMP180;11580;52.562;13.418;2023-11-21T04:31:42;100127.00;;;10.20
22828;BMP180;11580;52.562;13.418;2023-11-21T04:34:09;100128.00;;;10.20
22828;BMP180;11580;52.562;13.418;2023-11-21T04:36:37;100135.00;;;10.20
22828;BMP180;11580;52.562;13.418;2023-11-21T04:39:05;100132.00;;;10.20
22828;BMP180;11580;52.562;13.418;2023-11-21T04:41:34;100145.00;;;10.20
22828;BMP180;11580;52.562;13.418;2023-11-21T04:44:02;100147.00;;;10.30
22828;BMP180;11580;52.562;13.418;2023-11-21T04:46:30;100150.00;;;10.30
22828;BMP180;11580;52.562;13.418;2023-11-21T04:48:58;100152.00;;;10.30
22828;BMP180;11580;52.562;13.418;2023-11-21T04:51:25;100147.00;;;10.20
22828;BMP180;11580;52.562;13.418;2023-11-21T04:53:52;100155.00;;;10.20
22828;BMP180;11580;52.562;13.418;2023-11-21T04:56:20;100148.00;;;10.20
22828;BMP180;11580;52.562;13.418;2023-11-21T04:58:48;100156.00;;;10.10
22828;BMP180;11580;52.562;13.418;2023-11-21T05:01:16;100153.00;;;10.20
22828;BMP180;11580;52.562;13.418;2023-11-21T05:03:43;100158.00;;;10.20
22828;BMP180;11580;52.562;13.418;2023-11-21T05:06:10;100163.00;;;10.20
22828;BMP180;11580;52.562;13.418;2023-11-21T05:08:38;100163.00;;;10.20
22828;BMP180;11580;52.562;13.418;2023-11-21T05:11:05;100123.00;;;10.20
22828;BMP180;11580;52.562;13.418;2023-11-21T05:13:34;100167.00;;;10.20
22828;BMP180;11580;52.562;13.418;2023-11-21T05:16:03;100168.00;;;10.20
22828;BMP180;11580;52.562;13.418;2023-11-21T05:18:33;100174.00;;;10.20
22828;BMP180;11580;52.562;13.418;2023-11-21T05:21:00;100181.00;;;10.20
22828;BMP180;11580;52.562;13.418;2023-11-21T05:23:28;100180.00;;;10.20
22828;BMP180;11580;52.562;13.418;2023-11-21T05:25:55;100189.00;;;10.20
22828;BMP180;11580;52.562;13.418;2023-11-21T05:28:22;100197.00;;;10.20
22828;BMP180;11580;52.562;13.418;2023-11-21T05:30:50;100197.00;;;10.20
22828;BMP180;11580;52.562;13.418;2023-11-21T05:33:18;100197.00;;;10.10
22828;BMP180;11580;52.562;13.418;2023-11-21T05:35:45;100192.00;;;10.10
22828;BMP180;11580;52.562;13.418;2023-11-21T05:38:14;100193.00;;;10.10
22828;BMP180;11580;52.562;13.418;2023-11-21T05:40:41;100223.00;;;10.00
22828;BMP180;11580;52.562;13.418;2023-11-21T05:43:09;100193.00;;;10.00
22828;BMP180;11580;52.562;13.418;2023-11-21T05:45:37;100197.00;;;9.90
22828;BMP180;11580;52.562;13.418;2023-11-21T05:48:05;100216.00;;;9.90
22828;BMP180;11580;52.562;13.418;2023-11-21T05:50:33;100233.00;;;9.80
22828;BMP180;11580;52.562;13.418;2023-11-21T05:53:00;100210.00;;;9.80
22828;BMP180;11580;52.562;13.418;2023-11-21T05:55:28;100221.00;;;9.80
22828;BMP180;11580;52.562;13.418;2023-11-21T05:57:55;100226.00;;;9.80
22828;BMP180;11580;52.562;13.418;2023-11-21T06:00:22;100230.00;;;9.80
22828;BMP180;11580;52.562;13.418;2023-11-21T06:02:52;100229.00;;;9.70
22828;BMP180;11580;52.562;13.418;2023-11-21T06:05:22;100220.00;;;9.70
22828;BMP180;11580;52.562;13.418;2023-11-21T06:07:52;100222.00;;;9.70
22828;BMP180;11580;52.562;13.418;2023-11-21T06:10:21;100231.00;;;9.70
22828;BMP180;11580;52.562;13.418;2023-11-21T06:12:49;100232.00;;;9.70
22828;BMP180;11580;52.562;13.418;2023-11-21T06:15:17;100242.00;;;9.80
22828;BMP180;11580;52.562;13.418;2023-11-21T06:17:45;100244.00;;;9.80
22828;BMP180;11580;52.562;13.418;2023-11-21T06:20:15;100237.00;;;9.70
22828;BMP180;11580;52.562;13.418;2023-11-21T06:22:47;100243.00;;;9.70
22828;BMP180;11580;52.562;13.418;2023-11-21T06:25:16;100262.00;;;9.80
22828;BMP180;11580;52.562;13.418;2023-11-21T06:27:45;100256.00;;;9.70
22828;BMP180;11580;52.562;13.418;2023-11-21T06:30:15;100254.00;;;9.80
22828;BMP180;11580;52.562;13.418;2023-11-21T06:32:43;100271.00;;;9.70
22828;BMP180;11580;52.562;13.418;2023-11-21T06:35:11;100275.00;;;9.70
22828;BMP180;11580;52.562;13.418;2023-11-21T06:37:39;100277.00;;;9.70
22828;BMP180;11580;52.562;13.418;2023-11-21T06:40:08;100282.00;;;9.70
22828;BMP180;11580;52.562;13.418;2023-11-21T06:42:37;100292.00;;;9.70
22828;BMP180;11580;52.562;13.418;2023-11-21T06:45:06;100298.00;;;9.80
22828;BMP180;11580;52.562;13.418;2023-11-21T06:47:37;100305.00;;;9.80
22828;BMP180;11580;52.562;13.418;2023-11-21T06:50:06;100306.00;;;9.80
22828;BMP180;11580;52.562;13.418;2023-11-21T06:52:33;100303.00;;;9.70
22828;BMP180;11580;52.562;13.418;2023-11-21T06:55:01;100305.00;;;9.70
22828;BMP180;11580;52.562;13.418;2023-11-21T06:57:29;100311.00;;;9.70
22828;BMP180;11580;52.562;13.418;2023-11-21T06:59:57;100307.00;;;9.70
22828;BMP180;11580;52.562;13.418;2023-11-21T07:02:25;100307.00;;;9.70
22828;BMP180;11580;52.562;13.418;2023-11-21T07:04:52;100303.00;;;9.70
22828;BMP180;11580;52.562;13.418;2023-11-21T07:07:19;100307.00;;;9.70
22828;BMP180;11580;52.562;13.418;2023-11-21T07:09:46;100301.00;;;9.70
22828;BMP180;11580;52.562;13.418;2023-11-21T07:12:14;100310.00;;;9.70
22828;BMP180;11580;52.562;13.418;2023-11-21T07:14:42;100314.00;;;9.70
22828;BMP180;11580;52.562;13.418;2023-11-21T07:17:12;100325.00;;;9.70
22828;BMP180;11580;52.562;13.418;2023-11-21T07:19:39;100330.00;;;9.70
22828;BMP180;11580;52.562;13.418;2023-11-21T07:22:07;100341.00;;;9.70
22828;BMP180;11580;52.562;13.418;2023-11-21T07:24:35;100325.00;;;9.70
22828;BMP180;11580;52.562;13.418;2023-11-21T07:27:03;100316.00;;;9.50
22828;BMP180;11580;52.562;13.418;2023-11-21T07:29:30;100317.00;;;9.60
22828;BMP180;11580;52.562;13.418;2023-11-21T07:31:58;100324.00;;;9.70
22828;BMP180;11580;52.562;13.418;2023-11-21T07:34:27;100319.00;;;9.70
22828;BMP180;11580;52.562;13.418;2023-11-21T07:36:55;100335.00;;;9.70
22828;BMP180;11580;52.562;13.418;2023-11-21T07:39:22;100325.00;;;9.70
22828;BMP180;11580;52.562;13.418;2023-11-21T07:41:49;100343.00;;;9.80
22828;BMP180;11580;52.562;13.418;2023-11-21T07:44:16;100340.00;;;9.80
22828;BMP180;11580;52.562;13.418;2023-11-21T07:46:46;100349.00;;;9.80
22828;BMP180;11580;52.562;13.418;2023-11-21T07:49:13;100348.00;;;9.80
22828;BMP180;11580;52.562;13.418;2023-11-21T07:51:43;100344.00;;;9.80
22828;BMP180;11580;52.562;13.418;2023-11-21T07:54:11;100347.00;;;9.80
22828;BMP180;11580;52.562;13.418;2023-11-21T07:56:38;100344.00;;;9.80
22828;BMP180;11580;52.562;13.418;2023-11-21T07:59:05;100354.00;;;9.80
22828;BMP180;11580;52.562;13.418;2023-11-21T08:01:32;100359.00;;;9.80
22828;BMP180;11580;52.562;13.418;2023-11-21T08:04:00;100361.00;;;9.80
22828;BMP180;11580;52.562;13.418;2023-11-21T08:06:29;100366.00;;;9.80
22828;BMP180;11580;52.562;13.418;2023-11-21T08:08:58;100372.00;;;9.80
22828;BMP180;11580;52.562;13.418;2023-11-21T08:11:25;100379.00;;;9.80
22828;BMP180;11580;52.562;13.418;2023-11-21T08:13:55;100384.00;;;9.80
22828;BMP180;11580;52.562;13.418;2023-11-21T08:16:22;100383.00;;;9.80
22828;BMP180;11580;52.562;13.418;2023-11-21T08:18:50;100379.00;;;9.70
22828;BMP180;11580;52.562;13.418;2023-11-21T08:21:17;100384.00;;;9.70
22828;BMP180;11580;52.562;13.418;2023-11-21T08:23:44;100385.00;;;9.70
22828;BMP180;11580;52.562;13.418;2023-11-21T08:26:16;100386.00;;;9.70
22828;BMP180;11580;52.562;13.418;2023-11-21T08:28:44;100386.00;;;9.70
22828;BMP180;11580;52.562;13.418;2023-11-21T08:31:11;100392.00;;;9.70
22828;BMP180;11580;52.562;13.418;2023-11-21T08:33:38;100391.00;;;9.70
22828;BMP180;11580;52.562;13.418;2023-11-21T08:36:08;100392.00;;;9.70
22828;BMP180;11580;52.562;13.418;2023-11-21T08:38:36;100397.00;;;9.70
22828;BMP180;11580;52.562;13.418;2023-11-21T08:41:06;100401.00;;;9.80
22828;BMP180;11580;52.562;13.418;2023-11-21T08:43:36;100406.00;;;9.80
22828;BMP180;11580;52.562;13.418;2023-11-21T08:46:05;100406.00;;;9.80
22828;BMP180;11580;52.562;13.418;2023-11-21T08:48:35;100407.00;;;9.90
22828;BMP180;11580;52.562;13.418;2023-11-21T08:51:04;100410.00;;;9.80
22828;BMP180;11580;52.562;13.418;2023-11-21T08:53:31;100431.00;;;9.90
22828;BMP180;11580;52.562;13.418;2023-11-21T08:55:58;100426.00;;;9.90
22828;BMP180;11580;52.562;13.418;2023-11-21T08:58:26;100425.00;;;9.90
22828;BMP180;11580;52.562;13.418;2023-11-21T09:00:54;100429.00;;;9.90
22828;BMP180;11580;52.562;13.418;2023-11-21T09:03:22;100433.00;;;9.80
22828;BMP180;11580;52.562;13.418;2023-11-21T09:05:49;100444.00;;;9.80
22828;BMP180;11580;52.562;13.418;2023-11-21T09:08:16;100439.00;;;9.80
22828;BMP180;11580;52.562;13.418;2023-11-21T09:10:43;100446.00;;;9.80
22828;BMP180;11580;52.562;13.418;2023-11-21T09:13:13;100451.00;;;9.80
22828;BMP180;11580;52.562;13.418;2023-11-21T09:15:42;100459.00;;;9.80
22828;BMP180;11580;52.562;13.418;2023-11-21T09:18:13;100448.00;;;9.80
22828;BMP180;11580;52.562;13.418;2023-11-21T09:20:42;100462.00;;;9.80
22828;BMP180;11580;52.562;13.418;2023-11-21T09:23:09;100459.00;;;9.70
22828;BMP180;11580;52.562;13.418;2023-11-21T09:25:37;100466.00;;;9.70
22828;BMP180;11580;52.562;13.418;2023-11-21T09:28:05;100459.00;;;9.70
22828;BMP180;11580;52.562;13.418;2023-11-21T09:30:34;100466.00;;;9.60
22828;BMP180;11580;52.562;13.418;2023-11-21T09:33:01;100469.00;;;9.60
22828;BMP180;11580;52.562;13.418;2023-11-21T09:35:32;100475.00;;;9.60
22828;BMP180;11580;52.562;13.418;2023-11-21T09:37:59;100481.00;;;9.60
22828;BMP180;11580;52.562;13.418;2023-11-21T09:40:31;100487.00;;;9.60
22828;BMP180;11580;52.562;13.418;2023-11-21T09:42:59;100487.00;;;9.60
22828;BMP180;11580;52.562;13.418;2023-11-21T09:45:28;100491.00;;;9.60
22828;BMP180;11580;52.562;13.418;2023-11-21T09:47:57;100487.00;;;9.70
22828;BMP180;11580;52.562;13.418;2023-11-21T09:50:26;100476.00;;;9.70
22828;BMP180;11580;52.562;13.418;2023-11-21T09:53:09;100486.00;;;9.70
22828;BMP180;11580;52.562;13.418;2023-11-21T09:55:43;100502.00;;;9.70
22828;BMP180;11580;52.562;13.418;2023-11-21T09:58:11;100468.00;;;9.60
22828;BMP180;11580;52.562;13.418;2023-11-21T10:00:41;100503.00;;;9.70
22828;BMP180;11580;52.562;13.418;2023-11-21T10:03:09;100499.00;;;9.60
22828;BMP180;11580;52.562;13.418;2023-11-21T10:05:38;100484.00;;;9.70
22828;BMP180;11580;52.562;13.418;2023-11-21T10:08:09;100511.00;;;9.70
22828;BMP180;11580;52.562;13.418;2023-11-21T10:10:37;100499.00;;;9.60
22828;BMP180;11580;52.562;13.418;2023-11-21T10:13:09;100504.00;;;9.60
22828;BMP180;11580;52.562;13.418;2023-11-21T10:15:40;100516.00;;;9.60
22828;BMP180;11580;52.562;13.418;2023-11-21T10:18:15;100515.00;;;9.60
22828;BMP180;11580;52.562;13.418;2023-11-21T10:20:42;100526.00;;;9.50
22828;BMP180;11580;52.562;13.418;2023-11-21T10:23:14;100511.00;;;9.50
22828;BMP180;11580;52.562;13.418;2023-11-21T10:25:41;100503.00;;;9.40
22828;BMP180;11580;52.562;13.418;2023-11-21T10:28:10;100513.00;;;9.40
22828;BMP180;11580;52.562;13.418;2023-11-21T10:30:38;100515.00;;;9.40
22828;BMP180;11580;52.562;13.418;2023-11-21T10:33:07;100518.00;;;9.40
22828;BMP180;11580;52.562;13.418;2023-11-21T10:35:44;100504.00;;;9.30
22828;BMP180;11580;52.562;13.418;2023-11-21T10:38:18;100527.00;;;9.30
22828;BMP180;11580;52.562;13.418;2023-11-21T10:40:48;100526.00;;;9.20
22828;BMP180;11580;52.562;13.418;2023-11-21T10:43:17;100514.00;;;9.10
22828;BMP180;11580;52.562;13.418;2023-11-21T10:45:44;100526.00;;;9.00
22828;BMP180;11580;52.562;13.418;2023-11-21T10:48:14;100533.00;;;9.00
22828;BMP180;11580;52.562;13.418;2023-11-21T10:50:43;100538.00;;;9.00
22828;BMP180;11580;52.562;13.418;2023-11-21T10:53:12;100525.00;;;8.90
22828;BMP180;11580;52.562;13.418;2023-11-21T10:55:40;100534.00;;;8.90
22828;BMP180;11580;52.562;13.418;2023-11-21T10:58:13;100534.00;;;8.90
22828;BMP180;11580;52.562;13.418;2023-11-21T11:00:41;100548.00;;;8.90
22828;BMP180;11580;52.562;13.418;2023-11-21T11:03:11;100549.00;;;9.00
22828;BMP180;11580;52.562;13.418;2023-11-21T11:05:42;100545.00;;;9.00
22828;BMP180;11580;52.562;13.418;2023-11-21T11:08:14;100547.00;;;9.00
22828;BMP180;11580;52.562;13.418;2023-11-21T11:10:46;100545.00;;;9.00
22828;BMP180;11580;52.562;13.418;2023-11-21T11:13:14;100543.00;;;9.00
22828;BMP180;11580;52.562;13.418;2023-11-21T11:15:42;100552.00;;;9.10
22828;BMP180;11580;52.562;13.418;2023-11-21T11:18:10;100549.00;;;9.00
22828;BMP180;11580;52.562;13.418;2023-11-21T11:20:42;100547.00;;;9.10
22828;BMP180;11580;52.562;13.418;2023-11-21T11:23:40;100557.00;;;9.10
22828;BMP180;11580;52.562;13.418;2023-11-21T11:26:44;100555.00;;;9.00
22828;BMP180;11580;52.562;13.418;2023-11-21T11:29:26;100569.00;;;9.00
22828;BMP180;11580;52.562;13.418;2023-11-21T11:32:09;100545.00;;;9.00
22828;BMP180;11580;52.562;13.418;2023-11-21T11:34:46;100570.00;;;9.00
22828;BMP180;11580;52.562;13.418;2023-11-21T11:37:16;100580.00;;;9.00
22828;BMP180;11580;52.562;13.418;2023-11-21T11:39:43;100582.00;;;9.10
22828;BMP180;11580;52.562;13.418;2023-11-21T11:42:16;100598.00;;;9.10
22828;BMP180;11580;52.562;13.418;2023-11-21T11:44:49;100589.00;;;9.10
22828;BMP180;11580;52.562;13.418;2023-11-21T11:47:22;100592.00;;;9.10
22828;BMP180;11580;52.562;13.418;2023-11-21T11:49:59;100594.00;;;9.10
22828;BMP180;11580;52.562;13.418;2023-11-21T11:52:35;100607.00;;;9.10
22828;BMP180;11580;52.562;13.418;2023-11-21T11:55:04;100606.00;;;9.10
22828;BMP180;11580;52.562;13.418;2023-11-21T11:57:34;100610.00;;;9.10
22828;BMP180;11580;52.562;13.418;2023-11-21T12:00:16;100615.00;;;9.10
22828;BMP180;11580;52.562;13.418;2023-11-21T12:02:48;100614.00;;;9.10
22828;BMP180;11580;52.562;13.418;2023-11-21T12:05:17;100628.00;;;9.10
22828;BMP180;11580;52.562;13.418;2023-11-21T12:07:50;100629.00;;;9.00
22828;BMP180;11580;52.562;13.418;2023-11-21T12:10:21;100630.00;;;9.00
22828;BMP180;11580;52.562;13.418;2023-11-21T12:12:54;100617.00;;;8.90
22828;BMP180;11580;52.562;13.418;2023-11-21T12:15:23;100636.00;;;8.90
22828;BMP180;11580;52.562;13.418;2023-11-21T12:17:52;100619.00;;;8.90
22828;BMP180;11580;52.562;13.418;2023-11-21T12:20:21;100641.00;;;8.80
22828;BMP180;11580;52.562;13.418;2023-11-21T12:22:50;100644.00;;;8.80
22828;BMP180;11580;52.562;13.418;2023-11-21T12:25:19;100647.00;;;8.80
22828;BMP180;11580;52.562;13.418;2023-11-21T12:27:50;100646.00;;;8.70
22828;BMP180;11580;52.562;13.418;2023-11-21T12:30:19;100647.00;;;8.60
22828;BMP180;11580;52.562;13.418;2023-11-21T12:32:50;100649.00;;;8.70
22828;BMP180;11580;52.562;13.418;2023-11-21T12:35:18;100658.00;;;8.60
22828;BMP180;11580;52.562;13.418;2023-11-21T12:37:48;100661.00;;;8.60
22828;BMP180;11580;52.562;13.418;2023-11-21T12:40:16;100665.00;;;8.60
22828;BMP180;11580;52.562;13.418;2023-11-21T12:42:45;100667.00;;;8.60
22828;BMP180;11580;52.562;13.418;2023-11-21T12:45:26;100672.00;;;8.50
22828;BMP180;11580;52.562;13.418;2023-11-21T12:47:56;100658.00;;;8.50
22828;BMP180;11580;52.562;13.418;2023-11-21T12:50:27;100649.00;;;8.40
22828;BMP180;11580;52.562;13.418;2023-11-21T12:53:02;100672.00;;;8.30
22828;BMP180;11580;52.562;13.418;2023-11-21T12:55:31;100663.00;;;8.30
22828;BMP180;11580;52.562;13.418;2023-11-21T12:58:02;100658.00;;;8.30
22828;BMP180;11580;52.562;13.418;2023-11-21T13:00:38;100668.00;;;8.30
22828;BMP180;11580;52.562;13.418;2023-11-21T13:03:12;100686.00;;;8.30
22828;BMP180;11580;52.562;13.418;2023-11-21T13:05:44;100673.00;;;8.20
22828;BMP180;11580;52.562;13.418;2023-11-21T13:08:13;100686.00;;;8.20
22828;BMP180;11580;52.562;13.418;2023-11-21T13:10:45;100680.00;;;8.20
22828;BMP180;11580;52.562;13.418;2023-11-21T13:13:14;100692.00;;;8.10
22828;BMP180;11580;52.562;13.418;2023-11-21T13:15:51;100694.00;;;8.10
22828;BMP180;11580;52.562;13.418;2023-11-21T13:18:18;100698.00;;;8.00
22828;BMP180;11580;52.562;13.418;2023-11-21T13:20:47;100709.00;;;7.90
22828;BMP180;11580;52.562;13.418;2023-11-21T13:23:15;100695.00;;;7.90
22828;BMP180;11580;52.562;13.418;2023-11-21T13:25:43;100703.00;;;7.80
22828;BMP180;11580;52.562;13.418;2023-11-21T13:28:11;100682.00;;;7.90
22828;BMP180;11580;52.562;13.418;2023-11-21T13:30:41;100720.00;;;7.90
22828;BMP180;11580;52.562;13.418;2023-11-21T13:33:11;100710.00;;;7.90
22828;BMP180;11580;52.562;13.418;2023-11-21T13:35:44;100702.00;;;7.90
22828;BMP180;11580;52.562;13.418;2023-11-21T13:38:16;100699.00;;;7.90
22828;BMP180;11580;52.562;13.418;2023-11-21T13:40:48;100704.00;;;7.90
22828;BMP180;11580;52.562;13.418;2023-11-21T13:43:20;100729.00;;;7.90
22828;BMP180;11580;52.562;13.418;2023-11-21T13:45:50;100727.00;;;7.90
22828;BMP180;11580;52.562;13.418;2023-11-21T13:48:26;100729.00;;;7.90
22828;BMP180;11580;52.562;13.418;2023-11-21T13:51:00;100731.00;;;7.90
22828;BMP180;11580;52.562;13.418;2023-11-21T13:53:36;100739.00;;;7.90
22828;BMP180;11580;52.562;13.418;2023-11-21T13:56:05;100753.00;;;7.90
22828;BMP180;11580;52.562;13.418;2023-11-21T13:58:32;100754.00;;;7.90
22828;BMP180;11580;52.562;13.418;2023-11-21T14:01:10;100764.00;;;7.80
22828;BMP180;11580;52.562;13.418;2023-11-21T14:03:56;100762.00;;;7.70